sensor_id;sensor_type;location;lat;lon;timestamp;pressure;altitude;pressure_sealevel;temperature;humidity
9774;BME280;4926;42.670;23.316;2023-06-24T00:01:21;94582.13;;;22.93;91.75
9774;BME280;4926;42.670;23.316;2023-06-24T00:03:48;94581.28;;;22.89;92.20
9774;BME280;4926;42.670;23.316;2023-06-24T00:06:21;94582.72;;;22.83;92.34
9774;BME280;4926;42.670;23.316;2023-06-24T00:08:52;94584.44;;;22.91;92.00
9774;BME280;4926;42.670;23.316;2023-06-24T00:11:27;94575.06;;;22.89;92.83
9774;BME280;4926;42.670;23.316;2023-06-24T00:13:54;94567.28;;;22.87;92.13
9774;BME280;4926;42.670;23.316;2023-06-24T00:16:21;94567.88;;;23.00;91.74
9774;BME280;4926;42.670;23.316;2023-06-24T00:18:53;94572.31;;;23.11;89.58
9774;BME280;4926;42.670;23.316;2023-06-24T00:21:23;94571.69;;;23.21;88.63
9774;BME280;4926;42.670;23.316;2023-06-24T00:23:55;94568.69;;;23.27;88.84
9774;BME280;4926;42.670;23.316;2023-06-24T00:26:22;94570.97;;;23.24;88.85
9774;BME280;4926;42.670;23.316;2023-06-24T00:28:51;94570.22;;;23.27;89.18
9774;BME280;4926;42.670;23.316;2023-06-24T00:31:18;94574.19;;;23.30;88.15
9774;BME280;4926;42.670;23.316;2023-06-24T00:33:45;94577.03;;;23.14;89.25
9774;BME280;4926;42.670;23.316;2023-06-24T00:36:12;94567.31;;;23.13;88.89
9774;BME280;4926;42.670;23.316;2023-06-24T00:38:41;94570.75;;;23.10;89.77
9774;BME280;4926;42.670;23.316;2023-06-24T00:41:10;94578.47;;;23.08;89.65
9774;BME280;4926;42.670;23.316;2023-06-24T00:43:37;94574.22;;;23.07;90.44
9774;BME280;4926;42.670;23.316;2023-06-24T00:46:06;94574.22;;;23.07;90.84
9774;BME280;4926;42.670;23.316;2023-06-24T00:48:34;94563.03;;;23.12;90.58
9774;BME280;4926;42.670;23.316;2023-06-24T00:51:03;94561.81;;;23.10;90.66
9774;BME280;4926;42.670;23.316;2023-06-24T00:53:30;94563.78;;;23.13;90.16
9774;BME280;4926;42.670;23.316;2023-06-24T00:55:58;94555.19;;;23.07;90.77
9774;BME280;4926;42.670;23.316;2023-06-24T00:58:28;94548.88;;;23.00;91.86
9774;BME280;4926;42.670;23.316;2023-06-24T01:01:03;94551.84;;;22.91;92.63
9774;BME280;4926;42.670;23.316;2023-06-24T01:03:32;94544.28;;;22.81;93.09
9774;BME280;4926;42.670;23.316;2023-06-24T01:05:59;94537.63;;;22.75;93.91
9774;BME280;4926;42.670;23.316;2023-06-24T01:08:26;94540.63;;;22.70;94.18
9774;BME280;4926;42.670;23.316;2023-06-24T01:10:55;94535.22;;;22.70;94.37
9774;BME280;4926;42.670;23.316;2023-06-24T01:13:24;94538.56;;;22.64;94.74
9774;BME280;4926;42.670;23.316;2023-06-24T01:15:51;94539.06;;;22.69;94.25
9774;BME280;4926;42.670;23.316;2023-06-24T01:18:22;94541.97;;;22.57;95.30
9774;BME280;4926;42.670;23.316;2023-06-24T01:21:01;94527.81;;;22.48;96.31
9774;BME280;4926;42.670;23.316;2023-06-24T01:26:52;94529.03;;;22.28;98.91
9774;BME280;4926;42.670;23.316;2023-06-24T01:29:36;94524.28;;;22.22;100.00
9774;BME280;4926;42.670;23.316;2023-06-24T01:32:17;94525.81;;;22.23;100.00
9774;BME280;4926;42.670;23.316;2023-06-24T01:34:50;94531.97;;;22.20;100.00
9774;BME280;4926;42.670;23.316;2023-06-24T01:37:25;94530.47;;;22.22;100.00
9774;BME280;4926;42.670;23.316;2023-06-24T01:39:57;94531.91;;;22.16;100.00
9774;BME280;4926;42.670;23.316;2023-06-24T01:42:25;94543.53;;;22.16;100.00
9774;BME280;4926;42.670;23.316;2023-06-24T01:44:57;94551.31;;;22.18;100.00
9774;BME280;4926;42.670;23.316;2023-06-24T01:47:26;94555.16;;;22.17;100.00
9774;BME280;4926;42.670;23.316;2023-06-24T01:49:57;94562.50;;;22.16;100.00
9774;BME280;4926;42.670;23.316;2023-06-24T01:52:27;94547.53;;;22.23;100.00
9774;BME280;4926;42.670;23.316;2023-06-24T01:54:56;94561.56;;;22.28;100.00
9774;BME280;4926;42.670;23.316;2023-06-24T01:57:26;94563.56;;;22.31;100.00
9774;BME280;4926;42.670;23.316;2023-06-24T01:59:55;94564.00;;;22.33;100.00
9774;BME280;4926;42.670;23.316;2023-06-24T02:02:23;94564.91;;;22.41;100.00
9774;BME280;4926;42.670;23.316;2023-06-24T02:04:54;94561.97;;;22.49;100.00
9774;BME280;4926;42.670;23.316;2023-06-24T02:07:22;94575.38;;;22.61;100.00
9774;BME280;4926;42.670;23.316;2023-06-24T02:09:51;94574.59;;;22.61;100.00
9774;BME280;4926;42.670;23.316;2023-06-24T02:12:19;94576.53;;;22.60;100.00
9774;BME280;4926;42.670;23.316;2023-06-24T02:14:48;94576.88;;;22.59;100.00
9774;BME280;4926;42.670;23.316;2023-06-24T02:17:16;94571.44;;;22.59;100.00
9774;BME280;4926;42.670;23.316;2023-06-24T02:19:45;94564.41;;;22.54;100.00
9774;BME280;4926;42.670;23.316;2023-06-24T02:22:16;94573.81;;;22.60;100.00
9774;BME280;4926;42.670;23.316;2023-06-24T02:24:43;94577.06;;;22.50;100.00
9774;BME280;4926;42.670;23.316;2023-06-24T02:27:11;94579.78;;;22.50;100.00
9774;BME280;4926;42.670;23.316;2023-06-24T02:29:39;94584.03;;;22.48;100.00
9774;BME280;4926;42.670;23.316;2023-06-24T02:32:07;94596.88;;;22.51;100.00
9774;BME280;4926;42.670;23.316;2023-06-24T02:34:34;94609.38;;;22.55;100.00
9774;BME280;4926;42.670;23.316;2023-06-24T02:37:06;94613.81;;;22.44;100.00
9774;BME280;4926;42.670;23.316;2023-06-24T02:39:36;94612.09;;;22.36;100.00
9774;BME280;4926;42.670;23.316;2023-06-24T02:42:09;94617.88;;;22.35;100.00
9774;BME280;4926;42.670;23.316;2023-06-24T02:44:36;94622.19;;;22.36;100.00
9774;BME280;4926;42.670;23.316;2023-06-24T02:47:04;94622.38;;;22.27;100.00
9774;BME280;4926;42.670;23.316;2023-06-24T02:49:31;94621.19;;;22.25;100.00
9774;BME280;4926;42.670;23.316;2023-06-24T02:51:58;94621.91;;;22.22;100.00
9774;BME280;4926;42.670;23.316;2023-06-24T02:54:27;94607.25;;;22.26;100.00
9774;BME280;4926;42.670;23.316;2023-06-24T02:56:57;94625.88;;;22.28;100.00
9774;BME280;4926;42.670;23.316;2023-06-24T02:59:24;94636.06;;;22.34;100.00
9774;BME280;4926;42.670;23.316;2023-06-24T03:01:51;94628.16;;;22.26;100.00
9774;BME280;4926;42.670;23.316;2023-06-24T03:04:21;94635.31;;;22.34;100.00
9774;BME280;4926;42.670;23.316;2023-06-24T03:06:48;94633.66;;;22.29;100.00
9774;BME280;4926;42.670;23.316;2023-06-24T03:09:16;94629.59;;;22.20;100.00
9774;BME280;4926;42.670;23.316;2023-06-24T03:11:44;94630.94;;;22.29;100.00
9774;BME280;4926;42.670;23.316;2023-06-24T03:14:13;94622.94;;;22.36;100.00
9774;BME280;4926;42.670;23.316;2023-06-24T03:16:39;94619.09;;;22.37;100.00
9774;BME280;4926;42.670;23.316;2023-06-24T03:19:08;94625.28;;;22.38;100.00
9774;BME280;4926;42.670;23.316;2023-06-24T03:21:44;94622.31;;;22.43;100.00
9774;BME280;4926;42.670;23.316;2023-06-24T03:24:11;94627.09;;;22.30;100.00
9774;BME280;4926;42.670;23.316;2023-06-24T03:26:39;94618.69;;;22.16;100.00
9774;BME280;4926;42.670;23.316;2023-06-24T03:29:11;94637.38;;;22.21;100.00
9774;BME280;4926;42.670;23.316;2023-06-24T03:31:39;94636.66;;;22.24;100.00
9774;BME280;4926;42.670;23.316;2023-06-24T03:34:09;94649.16;;;22.29;100.00
9774;BME280;4926;42.670;23.316;2023-06-24T03:36:38;94663.50;;;22.29;100.00
9774;BME280;4926;42.670;23.316;2023-06-24T03:39:05;94656.28;;;22.37;100.00
9774;BME280;4926;42.670;23.316;2023-06-24T03:41:32;94651.06;;;22.47;100.00
9774;BME280;4926;42.670;23.316;2023-06-24T03:43:59;94655.94;;;22.57;100.00
9774;BME280;4926;42.670;23.316;2023-06-24T03:46:26;94663.91;;;22.69;100.00
9774;BME280;4926;42.670;23.316;2023-06-24T03:48:59;94661.97;;;22.70;100.00
9774;BME280;4926;42.670;23.316;2023-06-24T03:51:26;94672.59;;;22.78;100.00
9774;BME280;4926;42.670;23.316;2023-06-24T03:53:56;94662.97;;;22.81;100.00
9774;BME280;4926;42.670;23.316;2023-06-24T03:56:23;94661.16;;;22.88;100.00
9774;BME280;4926;42.670;23.316;2023-06-24T03:58:49;94663.28;;;22.98;100.00
9774;BME280;4926;42.670;23.316;2023-06-24T04:01:16;94665.38;;;23.08;100.00
9774;BME280;4926;42.670;23.316;2023-06-24T04:03:44;94668.53;;;23.10;100.00
9774;BME280;4926;42.670;23.316;2023-06-24T04:06:14;94655.38;;;23.12;99.31
9774;BME280;4926;42.670;23.316;2023-06-24T04:08:40;94671.44;;;22.98;100.00
9774;BME280;4926;42.670;23.316;2023-06-24T04:11:08;94671.19;;;22.84;100.00
9774;BME280;4926;42.670;23.316;2023-06-24T04:13:36;94671.91;;;22.62;100.00
9774;BME280;4926;42.670;23.316;2023-06-24T04:16:03;94665.50;;;22.51;100.00
9774;BME280;4926;42.670;23.316;2023-06-24T04:18:30;94666.63;;;22.50;100.00
9774;BME280;4926;42.670;23.316;2023-06-24T04:20:57;94661.13;;;22.47;100.00
9774;BME280;4926;42.670;23.316;2023-06-24T04:23:25;94661.78;;;22.40;100.00
9774;BME280;4926;42.670;23.316;2023-06-24T04:25:52;94652.09;;;22.39;100.00
9774;BME280;4926;42.670;23.316;2023-06-24T04:28:18;94649.63;;;22.34;100.00
9774;BME280;4926;42.670;23.316;2023-06-24T04:30:48;94646.03;;;22.27;100.00
9774;BME280;4926;42.670;23.316;2023-06-24T04:33:14;94635.09;;;22.23;100.00
9774;BME280;4926;42.670;23.316;2023-06-24T04:35:44;94639.44;;;22.28;100.00
9774;BME280;4926;42.670;23.316;2023-06-24T04:38:12;94649.38;;;22.39;100.00
9774;BME280;4926;42.670;23.316;2023-06-24T04:40:44;94654.38;;;22.37;100.00
9774;BME280;4926;42.670;23.316;2023-06-24T04:43:11;94656.22;;;22.33;100.00
9774;BME280;4926;42.670;23.316;2023-06-24T04:45:38;94646.38;;;22.44;100.00
9774;BME280;4926;42.670;23.316;2023-06-24T04:48:05;94653.28;;;22.61;100.00
9774;BME280;4926;42.670;23.316;2023-06-24T04:50:32;94657.41;;;22.74;100.00
9774;BME280;4926;42.670;23.316;2023-06-24T04:52:59;94662.00;;;22.92;100.00
9774;BME280;4926;42.670;23.316;2023-06-24T04:55:27;94668.78;;;23.02;100.00
9774;BME280;4926;42.670;23.316;2023-06-24T04:57:58;94670.22;;;23.18;100.00
9774;BME280;4926;42.670;23.316;2023-06-24T05:00:24;94662.75;;;23.35;100.00
9774;BME280;4926;42.670;23.316;2023-06-24T05:02:54;94663.91;;;23.34;99.14
9774;BME280;4926;42.670;23.316;2023-06-24T05:05:21;94664.41;;;23.43;97.84
9774;BME280;4926;42.670;23.316;2023-06-24T05:07:48;94657.91;;;23.47;97.31
9774;BME280;4926;42.670;23.316;2023-06-24T05:10:14;94662.91;;;23.45;97.91
9774;BME280;4926;42.670;23.316;2023-06-24T05:12:41;94673.03;;;23.48;97.09
9774;BME280;4926;42.670;23.316;2023-06-24T05:15:13;94664.19;;;23.29;99.25
9774;BME280;4926;42.670;23.316;2023-06-24T05:17:39;94653.50;;;23.39;99.20
9774;BME280;4926;42.670;23.316;2023-06-24T05:20:12;94660.03;;;23.61;97.75
9774;BME280;4926;42.670;23.316;2023-06-24T05:22:38;94651.34;;;23.78;97.07
9774;BME280;4926;42.670;23.316;2023-06-24T05:25:06;94653.53;;;23.95;96.29
9774;BME280;4926;42.670;23.316;2023-06-24T05:27:33;94648.72;;;24.11;94.86
9774;BME280;4926;42.670;23.316;2023-06-24T05:29:59;94650.19;;;24.35;92.87
9774;BME280;4926;42.670;23.316;2023-06-24T05:32:29;94647.25;;;24.50;91.83
9774;BME280;4926;42.670;23.316;2023-06-24T05:34:56;94649.72;;;24.62;91.11
9774;BME280;4926;42.670;23.316;2023-06-24T05:37:22;94655.31;;;24.73;90.71
9774;BME280;4926;42.670;23.316;2023-06-24T05:39:49;94643.41;;;24.91;87.63
9774;BME280;4926;42.670;23.316;2023-06-24T05:42:16;94648.06;;;24.87;84.97
9774;BME280;4926;42.670;23.316;2023-06-24T05:44:43;94652.31;;;24.85;84.33
9774;BME280;4926;42.670;23.316;2023-06-24T05:47:09;94650.72;;;24.80;84.76
9774;BME280;4926;42.670;23.316;2023-06-24T05:49:39;94650.72;;;24.80;83.25
9774;BME280;4926;42.670;23.316;2023-06-24T05:52:08;94653.16;;;24.92;83.72
9774;BME280;4926;42.670;23.316;2023-06-24T05:54:34;94646.13;;;24.91;81.53
9774;BME280;4926;42.670;23.316;2023-06-24T05:57:10;94638.06;;;25.02;81.11
9774;BME280;4926;42.670;23.316;2023-06-24T05:59:37;94637.31;;;25.01;81.06
9774;BME280;4926;42.670;23.316;2023-06-24T06:02:03;94633.84;;;25.08;81.32
9774;BME280;4926;42.670;23.316;2023-06-24T06:04:30;94637.84;;;25.17;81.19
9774;BME280;4926;42.670;23.316;2023-06-24T06:06:58;94644.78;;;25.11;81.26
9774;BME280;4926;42.670;23.316;2023-06-24T06:09:25;94639.34;;;25.11;78.38
9774;BME280;4926;42.670;23.316;2023-06-24T06:11:52;94624.09;;;25.03;78.11
9774;BME280;4926;42.670;23.316;2023-06-24T06:14:19;94632.66;;;25.05;79.50
9774;BME280;4926;42.670;23.316;2023-06-24T06:16:45;94635.50;;;25.19;79.16
9774;BME280;4926;42.670;23.316;2023-06-24T06:19:12;94637.13;;;25.27;78.66
9774;BME280;4926;42.670;23.316;2023-06-24T06:21:39;94636.94;;;25.47;78.85
9774;BME280;4926;42.670;23.316;2023-06-24T06:24:10;94632.00;;;25.66;78.35
9774;BME280;4926;42.670;23.316;2023-06-24T06:26:41;94636.81;;;25.87;77.46
9774;BME280;4926;42.670;23.316;2023-06-24T06:29:08;94635.25;;;25.93;77.02
9774;BME280;4926;42.670;23.316;2023-06-24T06:31:40;94636.81;;;25.87;76.54
9774;BME280;4926;42.670;23.316;2023-06-24T06:34:07;94643.75;;;25.77;76.93
9774;BME280;4926;42.670;23.316;2023-06-24T06:36:34;94641.47;;;25.86;76.18
9774;BME280;4926;42.670;23.316;2023-06-24T06:39:00;94633.75;;;25.99;75.88
9774;BME280;4926;42.670;23.316;2023-06-24T06:41:28;94634.66;;;26.17;75.35
9774;BME280;4926;42.670;23.316;2023-06-24T06:43:55;94644.09;;;26.44;73.80
9774;BME280;4926;42.670;23.316;2023-06-24T06:46:22;94637.97;;;26.72;73.16
9774;BME280;4926;42.670;23.316;2023-06-24T06:48:49;94645.78;;;26.80;73.27
9774;BME280;4926;42.670;23.316;2023-06-24T06:51:16;94641.50;;;26.79;72.28
9774;BME280;4926;42.670;23.316;2023-06-24T06:53:49;94640.75;;;26.89;71.31
9774;BME280;4926;42.670;23.316;2023-06-24T06:56:17;94634.91;;;27.01;70.98
9774;BME280;4926;42.670;23.316;2023-06-24T06:58:45;94635.28;;;26.96;70.34
9774;BME280;4926;42.670;23.316;2023-06-24T07:01:12;94627.91;;;27.14;69.57
9774;BME280;4926;42.670;23.316;2023-06-24T07:03:39;94625.56;;;27.27;68.84
9774;BME280;4926;42.670;23.316;2023-06-24T07:06:06;94628.34;;;27.44;68.80
9774;BME280;4926;42.670;23.316;2023-06-24T07:08:33;94617.72;;;27.78;68.05
9774;BME280;4926;42.670;23.316;2023-06-24T07:11:00;94621.59;;;28.09;65.89
9774;BME280;4926;42.670;23.316;2023-06-24T07:13:27;94620.28;;;28.38;63.88
9774;BME280;4926;42.670;23.316;2023-06-24T07:15:55;94619.47;;;28.59;63.05
9774;BME280;4926;42.670;23.316;2023-06-24T07:18:24;94606.41;;;28.80;61.66
9774;BME280;4926;42.670;23.316;2023-06-24T07:20:56;94605.16;;;28.95;60.79
9774;BME280;4926;42.670;23.316;2023-06-24T07:23:22;94611.94;;;28.70;61.05
9774;BME280;4926;42.670;23.316;2023-06-24T07:25:49;94606.44;;;28.77;60.73
9774;BME280;4926;42.670;23.316;2023-06-24T07:28:17;94609.47;;;28.93;60.93
9774;BME280;4926;42.670;23.316;2023-06-24T07:30:45;94603.63;;;28.87;61.04
9774;BME280;4926;42.670;23.316;2023-06-24T07:33:13;94603.28;;;28.78;60.97
9774;BME280;4926;42.670;23.316;2023-06-24T07:35:40;94613.81;;;28.83;61.62
9774;BME280;4926;42.670;23.316;2023-06-24T07:38:07;94602.31;;;29.13;60.51
9774;BME280;4926;42.670;23.316;2023-06-24T07:40:33;94602.25;;;29.23;59.24
9774;BME280;4926;42.670;23.316;2023-06-24T07:43:01;94607.59;;;29.34;60.13
9774;BME280;4926;42.670;23.316;2023-06-24T07:45:28;94595.81;;;29.40;59.26
9774;BME280;4926;42.670;23.316;2023-06-24T07:48:01;94599.03;;;29.32;59.17
9774;BME280;4926;42.670;23.316;2023-06-24T07:50:37;94595.88;;;29.33;58.40
9774;BME280;4926;42.670;23.316;2023-06-24T07:53:04;94600.72;;;29.15;59.20
9774;BME280;4926;42.670;23.316;2023-06-24T07:55:31;94598.50;;;28.93;59.65
9774;BME280;4926;42.670;23.316;2023-06-24T07:57:58;94609.88;;;28.91;60.27
9774;BME280;4926;42.670;23.316;2023-06-24T08:00:25;94616.78;;;29.13;59.73
9774;BME280;4926;42.670;23.316;2023-06-24T08:02:52;94609.31;;;29.17;57.85
9774;BME280;4926;42.670;23.316;2023-06-24T08:05:22;94612.84;;;29.21;58.80
9774;BME280;4926;42.670;23.316;2023-06-24T08:07:52;94616.28;;;29.29;59.14
9774;BME280;4926;42.670;23.316;2023-06-24T08:10:18;94622.44;;;29.43;58.44
9774;BME280;4926;42.670;23.316;2023-06-24T08:12:45;94614.34;;;29.74;58.65
9774;BME280;4926;42.670;23.316;2023-06-24T08:15:12;94605.78;;;30.05;57.32
9774;BME280;4926;42.670;23.316;2023-06-24T08:17:43;94593.25;;;30.38;55.43
9774;BME280;4926;42.670;23.316;2023-06-24T08:20:11;94591.13;;;30.19;54.84
9774;BME280;4926;42.670;23.316;2023-06-24T08:22:38;94594.66;;;29.82;55.50
9774;BME280;4926;42.670;23.316;2023-06-24T08:25:08;94604.38;;;29.49;57.54
9774;BME280;4926;42.670;23.316;2023-06-24T08:27:35;94590.75;;;29.80;55.73
9774;BME280;4926;42.670;23.316;2023-06-24T08:30:03;94586.91;;;30.11;54.96
9774;BME280;4926;42.670;23.316;2023-06-24T08:32:30;94598.09;;;30.27;56.41
9774;BME280;4926;42.670;23.316;2023-06-24T08:35:00;94583.88;;;30.02;55.83
9774;BME280;4926;42.670;23.316;2023-06-24T08:37:27;94584.25;;;30.04;55.36
9774;BME280;4926;42.670;23.316;2023-06-24T08:39:56;94586.13;;;30.44;56.29
9774;BME280;4926;42.670;23.316;2023-06-24T08:42:24;94586.56;;;30.69;56.39
9774;BME280;4926;42.670;23.316;2023-06-24T08:44:53;94579.16;;;30.96;54.86
9774;BME280;4926;42.670;23.316;2023-06-24T08:47:21;94550.69;;;31.06;53.23
9774;BME280;4926;42.670;23.316;2023-06-24T08:50:02;94550.09;;;31.18;52.67
9774;BME280;4926;42.670;23.316;2023-06-24T08:52:42;94554.31;;;31.49;52.64
9774;BME280;4926;42.670;23.316;2023-06-24T08:55:13;94556.13;;;31.59;52.85
9774;BME280;4926;42.670;23.316;2023-06-24T08:57:43;94540.66;;;31.89;52.79
9774;BME280;4926;42.670;23.316;2023-06-24T09:00:11;94548.91;;;32.08;52.49
9774;BME280;4926;42.670;23.316;2023-06-24T09:02:38;94551.75;;;32.24;51.53
9774;BME280;4926;42.670;23.316;2023-06-24T09:05:05;94531.59;;;32.47;50.13
9774;BME280;4926;42.670;23.316;2023-06-24T09:07:38;94528.06;;;32.27;50.04
9774;BME280;4926;42.670;23.316;2023-06-24T09:10:06;94534.63;;;32.33;50.27
9774;BME280;4926;42.670;23.316;2023-06-24T09:12:35;94529.66;;;31.85;51.54
9774;BME280;4926;42.670;23.316;2023-06-24T09:15:06;94534.06;;;32.22;50.18
9774;BME280;4926;42.670;23.316;2023-06-24T09:17:43;94541.97;;;32.00;50.55
9774;BME280;4926;42.670;23.316;2023-06-24T09:20:12;94532.31;;;32.12;50.27
9774;BME280;4926;42.670;23.316;2023-06-24T09:22:40;94532.88;;;32.42;49.93
9774;BME280;4926;42.670;23.316;2023-06-24T09:25:07;94528.81;;;32.83;48.78
9774;BME280;4926;42.670;23.316;2023-06-24T09:27:34;94524.13;;;32.99;47.50
9774;BME280;4926;42.670;23.316;2023-06-24T09:30:20;94511.09;;;33.00;46.36
9774;BME280;4926;42.670;23.316;2023-06-24T09:32:48;94530.91;;;32.78;49.53
9774;BME280;4926;42.670;23.316;2023-06-24T09:35:21;94536.72;;;32.64;49.06
9774;BME280;4926;42.670;23.316;2023-06-24T09:37:51;94530.97;;;32.91;48.12
9774;BME280;4926;42.670;23.316;2023-06-24T09:40:18;94517.31;;;33.20;47.61
9774;BME280;4926;42.670;23.316;2023-06-24T09:42:52;94517.31;;;33.04;47.30
9774;BME280;4926;42.670;23.316;2023-06-24T09:45:24;94516.88;;;33.05;47.93
9774;BME280;4926;42.670;23.316;2023-06-24T09:47:51;94528.69;;;33.06;48.78
9774;BME280;4926;42.670;23.316;2023-06-24T09:50:19;94535.50;;;33.17;48.83
9774;BME280;4926;42.670;23.316;2023-06-24T09:52:51;94522.56;;;33.62;47.42
9774;BME280;4926;42.670;23.316;2023-06-24T09:55:21;94518.41;;;33.38;46.93
9774;BME280;4926;42.670;23.316;2023-06-24T09:57:54;94519.97;;;33.39;47.25
9774;BME280;4926;42.670;23.316;2023-06-24T10:00:21;94504.81;;;33.76;45.87
9774;BME280;4926;42.670;23.316;2023-06-24T10:02:53;94497.88;;;34.00;45.12
9774;BME280;4926;42.670;23.316;2023-06-24T10:05:21;94494.03;;;33.81;45.95
9774;BME280;4926;42.670;23.316;2023-06-24T10:07:48;94492.44;;;33.97;45.26
9774;BME280;4926;42.670;23.316;2023-06-24T10:10:17;94494.63;;;34.30;45.97
9774;BME280;4926;42.670;23.316;2023-06-24T10:12:44;94479.13;;;34.33;44.82
9774;BME280;4926;42.670;23.316;2023-06-24T10:15:10;94476.69;;;34.35;44.08
9774;BME280;4926;42.670;23.316;2023-06-24T10:17:38;94468.13;;;34.45;44.02
9774;BME280;4926;42.670;23.316;2023-06-24T10:20:10;94450.53;;;34.52;43.74
9774;BME280;4926;42.670;23.316;2023-06-24T10:22:40;94458.66;;;34.18;43.50
9774;BME280;4926;42.670;23.316;2023-06-24T10:25:12;94445.25;;;34.45;43.17
9774;BME280;4926;42.670;23.316;2023-06-24T10:27:40;94434.94;;;34.45;43.21
9774;BME280;4926;42.670;23.316;2023-06-24T10:30:17;94445.25;;;34.04;44.00
9774;BME280;4926;42.670;23.316;2023-06-24T10:32:44;94440.97;;;34.03;43.56
9774;BME280;4926;42.670;23.316;2023-06-24T10:35:23;94438.06;;;33.65;44.06
9774;BME280;4926;42.670;23.316;2023-06-24T10:37:56;94440.00;;;33.93;44.31
9774;BME280;4926;42.670;23.316;2023-06-24T10:40:37;94423.84;;;34.08;42.92
9774;BME280;4926;42.670;23.316;2023-06-24T10:43:25;94421.19;;;33.75;42.64
9774;BME280;4926;42.670;23.316;2023-06-24T10:45:54;94419.47;;;33.53;43.10
9774;BME280;4926;42.670;23.316;2023-06-24T10:48:21;94411.84;;;33.57;43.74
9774;BME280;4926;42.670;23.316;2023-06-24T10:50:49;94402.78;;;33.98;44.13
9774;BME280;4926;42.670;23.316;2023-06-24T10:53:18;94403.16;;;34.25;43.36
9774;BME280;4926;42.670;23.316;2023-06-24T10:55:48;94386.34;;;34.32;41.66
9774;BME280;4926;42.670;23.316;2023-06-24T10:58:17;94393.97;;;34.28;43.39
9774;BME280;4926;42.670;23.316;2023-06-24T11:00:46;94384.81;;;34.56;42.18
9774;BME280;4926;42.670;23.316;2023-06-24T11:03:16;94374.41;;;34.72;41.76
9774;BME280;4926;42.670;23.316;2023-06-24T11:05:44;94372.38;;;34.98;40.89
9774;BME280;4926;42.670;23.316;2023-06-24T11:08:13;94364.56;;;35.18;40.54
9774;BME280;4926;42.670;23.316;2023-06-24T11:10:44;94371.03;;;35.37;40.74
9774;BME280;4926;42.670;23.316;2023-06-24T11:13:11;94372.47;;;35.41;40.45
9774;BME280;4926;42.670;23.316;2023-06-24T11:15:38;94367.56;;;35.45;39.63
9774;BME280;4926;42.670;23.316;2023-06-24T11:18:08;94373.44;;;35.13;40.10
9774;BME280;4926;42.670;23.316;2023-06-24T11:20:35;94368.06;;;35.31;39.52
9774;BME280;4926;42.670;23.316;2023-06-24T11:23:09;94359.16;;;35.36;38.46
9774;BME280;4926;42.670;23.316;2023-06-24T11:25:42;94368.31;;;34.77;39.70
9774;BME280;4926;42.670;23.316;2023-06-24T11:28:16;94361.44;;;34.69;40.40
9774;BME280;4926;42.670;23.316;2023-06-24T11:30:46;94374.19;;;34.92;39.93
9774;BME280;4926;42.670;23.316;2023-06-24T11:33:26;94374.97;;;34.42;40.63
9774;BME280;4926;42.670;23.316;2023-06-24T11:35:53;94382.38;;;34.08;41.84
9774;BME280;4926;42.670;23.316;2023-06-24T11:38:19;94370.41;;;33.98;40.30
9774;BME280;4926;42.670;23.316;2023-06-24T11:40:49;94374.75;;;33.99;40.90
9774;BME280;4926;42.670;23.316;2023-06-24T11:43:16;94372.13;;;33.79;40.77
9774;BME280;4926;42.670;23.316;2023-06-24T11:45:43;94369.16;;;33.74;41.01
9774;BME280;4926;42.670;23.316;2023-06-24T11:48:11;94374.78;;;33.70;41.26
9774;BME280;4926;42.670;23.316;2023-06-24T11:50:38;94364.81;;;33.32;40.96
9774;BME280;4926;42.670;23.316;2023-06-24T11:53:05;94362.91;;;33.00;42.60
9774;BME280;4926;42.670;23.316;2023-06-24T11:55:31;94367.56;;;32.71;42.67
9774;BME280;4926;42.670;23.316;2023-06-24T11:58:05;94365.34;;;32.50;42.17
9774;BME280;4926;42.670;23.316;2023-06-24T12:00:34;94358.78;;;32.44;43.63
9774;BME280;4926;42.670;23.316;2023-06-24T12:03:04;94344.91;;;32.15;43.69
9774;BME280;4926;42.670;23.316;2023-06-24T12:05:32;94351.53;;;32.34;42.96
9774;BME280;4926;42.670;23.316;2023-06-24T12:08:00;94326.28;;;32.35;42.29
9774;BME280;4926;42.670;23.316;2023-06-24T12:10:30;94334.41;;;32.58;42.83
9774;BME280;4926;42.670;23.316;2023-06-24T12:12:57;94330.31;;;32.79;43.67
9774;BME280;4926;42.670;23.316;2023-06-24T12:15:26;94321.03;;;32.89;42.16
9774;BME280;4926;42.670;23.316;2023-06-24T12:17:53;94322.56;;;32.90;41.83
9774;BME280;4926;42.670;23.316;2023-06-24T12:20:20;94329.00;;;32.55;42.53
9774;BME280;4926;42.670;23.316;2023-06-24T12:22:51;94326.66;;;32.53;42.34
9774;BME280;4926;42.670;23.316;2023-06-24T12:25:21;94323.03;;;32.40;42.50
9774;BME280;4926;42.670;23.316;2023-06-24T12:27:47;94322.41;;;32.01;42.51
9774;BME280;4926;42.670;23.316;2023-06-24T12:30:14;94329.94;;;31.81;43.60
9774;BME280;4926;42.670;23.316;2023-06-24T12:32:43;94323.78;;;31.73;42.84
9774;BME280;4926;42.670;23.316;2023-06-24T12:35:10;94335.59;;;31.73;43.83
9774;BME280;4926;42.670;23.316;2023-06-24T12:37:40;94328.78;;;31.78;43.55
9774;BME280;4926;42.670;23.316;2023-06-24T12:40:07;94353.50;;;31.82;45.53
9774;BME280;4926;42.670;23.316;2023-06-24T12:42:34;94360.97;;;31.81;45.15
9774;BME280;4926;42.670;23.316;2023-06-24T12:45:01;94370.47;;;31.60;45.34
9774;BME280;4926;42.670;23.316;2023-06-24T12:47:30;94392.63;;;31.53;46.40
9774;BME280;4926;42.670;23.316;2023-06-24T12:50:00;94407.75;;;31.45;46.98
9774;BME280;4926;42.670;23.316;2023-06-24T12:52:31;94411.00;;;31.17;47.65
9774;BME280;4926;42.670;23.316;2023-06-24T12:54:58;94426.56;;;31.04;48.51
9774;BME280;4926;42.670;23.316;2023-06-24T12:57:25;94433.03;;;30.94;49.47
9774;BME280;4926;42.670;23.316;2023-06-24T12:59:54;94436.25;;;30.89;49.58
9774;BME280;4926;42.670;23.316;2023-06-24T13:02:21;94431.59;;;30.86;49.65
9774;BME280;4926;42.670;23.316;2023-06-24T13:04:48;94434.91;;;30.74;50.31
9774;BME280;4926;42.670;23.316;2023-06-24T13:07:16;94415.44;;;30.65;50.53
9774;BME280;4926;42.670;23.316;2023-06-24T13:09:42;94425.03;;;30.53;51.43
9774;BME280;4926;42.670;23.316;2023-06-24T13:12:09;94408.66;;;30.46;50.98
9774;BME280;4926;42.670;23.316;2023-06-24T13:14:37;94411.56;;;30.36;51.85
9774;BME280;4926;42.670;23.316;2023-06-24T13:17:04;94401.88;;;30.28;51.94
9774;BME280;4926;42.670;23.316;2023-06-24T13:19:31;94401.22;;;30.17;51.10